createdAt,value
2022-10-23T00:02:54.822Z,89.60
2022-10-23T00:06:00.354Z,89.60
2022-10-23T00:09:06.527Z,89.60
2022-10-23T00:12:10.195Z,89.60
2022-10-23T00:15:14.500Z,89.60
2022-10-23T00:18:18.132Z,89.60
2022-10-23T00:21:23.768Z,89.70
2022-10-23T00:24:27.387Z,89.60
2022-10-23T00:27:30.977Z,89.60
2022-10-23T00:30:34.870Z,89.60
2022-10-23T00:33:38.570Z,89.60
2022-10-23T00:36:44.145Z,89.60
2022-10-23T00:39:47.793Z,89.70
2022-10-23T00:42:51.402Z,89.70
2022-10-23T00:45:55.633Z,89.80
2022-10-23T00:49:00.299Z,89.80
2022-10-23T00:52:10.217Z,89.70
2022-10-23T00:55:13.917Z,89.80
2022-10-23T00:58:19.585Z,89.80
2022-10-23T01:01:25.518Z,89.80
2022-10-23T01:04:30.685Z,89.80
2022-10-23T01:07:45.130Z,89.90
2022-10-23T01:10:54.014Z,89.90
2022-10-23T01:14:04.414Z,89.80
2022-10-23T01:17:13.982Z,89.80
2022-10-23T01:20:38.532Z,89.80
2022-10-23T01:24:19.043Z,89.80
2022-10-23T01:27:28.098Z,89.80
2022-10-23T01:30:34.977Z,89.70
2022-10-23T01:33:44.326Z,89.80
2022-10-23T01:36:50.929Z,89.80
2022-10-23T01:39:57.226Z,89.80
2022-10-23T01:43:07.508Z,89.80
2022-10-23T01:46:16.510Z,89.80
2022-10-23T01:49:24.162Z,89.80
2022-10-23T01:52:31.889Z,89.80
2022-10-23T01:55:38.117Z,89.80
2022-10-23T01:58:50.940Z,89.80
2022-10-23T02:01:58.304Z,89.80
2022-10-23T02:05:07.806Z,89.90
2022-10-23T02:08:12.020Z,89.80
2022-10-23T02:11:17.328Z,89.80
2022-10-23T02:14:30.835Z,89.80
2022-10-23T02:17:44.756Z,89.80
2022-10-23T02:20:57.041Z,89.90
2022-10-23T02:24:06.851Z,89.90
2022-10-23T02:27:18.447Z,89.80
2022-10-23T02:30:31.501Z,89.90
2022-10-23T02:33:47.335Z,89.90
2022-10-23T02:36:50.971Z,89.90
2022-10-23T02:39:56.981Z,89.90
2022-10-23T02:43:07.414Z,89.90
2022-10-23T02:46:22.598Z,89.90
2022-10-23T02:49:31.455Z,89.90
2022-10-23T02:52:42.987Z,89.90
2022-10-23T02:55:57.618Z,89.90
2022-10-23T02:59:06.116Z,90.00
2022-10-23T03:02:19.662Z,90.00
2022-10-23T03:05:27.037Z,90.00
2022-10-23T03:08:31.055Z,90.00
2022-10-23T03:11:34.717Z,90.20
2022-10-23T03:14:39.933Z,90.00
2022-10-23T03:17:46.612Z,90.00
2022-10-23T03:20:51.980Z,90.00
2022-10-23T03:23:58.918Z,90.00
2022-10-23T03:27:12.474Z,90.00
2022-10-23T03:33:22.415Z,89.50
2022-10-23T03:36:26.117Z,90.00
2022-10-23T03:39:30.613Z,90.00
2022-10-23T03:42:34.246Z,90.00
2022-10-23T03:45:37.953Z,90.00
2022-10-23T03:48:43.494Z,90.00
2022-10-23T03:51:52.222Z,90.00
2022-10-23T03:54:57.733Z,90.00
2022-10-23T03:58:01.449Z,90.00
2022-10-23T04:01:05.438Z,90.00
2022-10-23T04:04:10.812Z,90.00
2022-10-23T04:07:14.598Z,90.00
2022-10-23T04:10:18.367Z,90.00
2022-10-23T04:13:22.010Z,90.00
2022-10-23T04:16:25.795Z,90.00
2022-10-23T04:19:31.335Z,90.00
2022-10-23T04:22:35.016Z,90.10
2022-10-23T04:25:38.693Z,90.10
2022-10-23T04:28:42.410Z,90.10
2022-10-23T04:31:46.263Z,90.10
2022-10-23T04:34:51.794Z,90.10
2022-10-23T04:37:55.628Z,90.10
2022-10-23T04:41:00.317Z,90.10
2022-10-23T04:44:04.074Z,90.20
2022-10-23T04:47:10.274Z,90.10
2022-10-23T04:50:25.738Z,90.10
2022-10-23T04:53:52.234Z,90.10
2022-10-23T04:57:27.890Z,90.10
2022-10-23T05:00:40.520Z,90.10
2022-10-23T05:03:44.842Z,90.10
2022-10-23T05:06:50.606Z,90.20
2022-10-23T05:10:17.601Z,90.20
2022-10-23T05:13:33.378Z,90.20
2022-10-23T05:16:41.061Z,90.20
2022-10-23T05:19:49.150Z,90.20
2022-10-23T05:22:57.294Z,90.20
2022-10-23T05:26:02.610Z,90.20
2022-10-23T05:29:07.556Z,90.20
2022-10-23T05:32:13.495Z,90.20
2022-10-23T05:35:22.155Z,90.30
2022-10-23T05:38:31.863Z,90.20
2022-10-23T05:41:39.311Z,90.30
2022-10-23T05:44:43.460Z,90.30
2022-10-23T05:48:16.784Z,90.30
2022-10-23T05:51:44.759Z,90.30
2022-10-23T05:55:03.697Z,90.20
2022-10-23T05:58:36.262Z,90.30
2022-10-23T06:02:02.946Z,90.30
2022-10-23T06:05:24.559Z,90.30
2022-10-23T06:08:46.871Z,90.30
2022-10-23T06:11:53.130Z,90.30
2022-10-23T06:14:59.373Z,90.30
2022-10-23T06:18:16.462Z,90.30
2022-10-23T06:21:38.198Z,90.30
2022-10-23T06:24:42.263Z,90.40
2022-10-23T06:27:52.702Z,90.40
2022-10-23T06:30:56.681Z,90.40
2022-10-23T06:34:01.175Z,90.40
2022-10-23T06:37:07.460Z,90.40
2022-10-23T06:40:18.121Z,90.40
2022-10-23T06:43:36.243Z,90.40
2022-10-23T06:46:57.473Z,90.40
2022-10-23T06:50:19.421Z,90.40
2022-10-23T06:53:24.543Z,90.40
2022-10-23T06:56:35.758Z,90.70
2022-10-23T06:59:44.625Z,90.40
2022-10-23T07:02:48.301Z,90.40
2022-10-23T07:05:52.050Z,90.40
2022-10-23T07:08:55.955Z,90.40
2022-10-23T07:12:22.258Z,90.40
2022-10-23T07:15:34.126Z,90.40
2022-10-23T07:18:37.738Z,90.40
2022-10-23T07:22:19.682Z,90.40
2022-10-23T07:25:35.426Z,90.50
2022-10-23T07:28:40.737Z,90.50
2022-10-23T07:31:46.515Z,90.50
2022-10-23T07:35:09.920Z,90.40
2022-10-23T07:38:17.054Z,90.50
2022-10-23T07:41:24.810Z,90.50
2022-10-23T07:44:28.492Z,90.50
2022-10-23T07:47:34.894Z,90.60
2022-10-23T07:50:40.030Z,90.60
2022-10-23T07:53:45.057Z,90.60
2022-10-23T07:57:01.220Z,90.60
2022-10-23T08:00:20.212Z,90.60
2022-10-23T08:03:35.402Z,90.60
2022-10-23T08:06:39.984Z,90.60
2022-10-23T08:09:44.189Z,90.70
2022-10-23T08:12:48.038Z,90.70
2022-10-23T08:15:55.289Z,90.70
2022-10-23T08:19:23.785Z,90.70
2022-10-23T08:22:29.769Z,90.70
2022-10-23T08:25:33.444Z,90.70
2022-10-23T08:28:37.298Z,90.80
2022-10-23T08:31:41.205Z,90.80
2022-10-23T08:34:54.274Z,90.80
2022-10-23T08:38:00.323Z,90.80
2022-10-23T08:41:13.721Z,90.80
2022-10-23T08:44:33.627Z,90.80
2022-10-23T08:47:41.186Z,90.90
2022-10-23T08:51:17.756Z,90.90
2022-10-23T08:54:24.242Z,90.90
2022-10-23T08:57:34.010Z,90.90
2022-10-23T09:00:38.184Z,90.90
2022-10-23T09:03:41.883Z,91.00
2022-10-23T09:06:57.375Z,91.20
2022-10-23T09:10:16.271Z,91.00
2022-10-23T09:13:49.874Z,91.00
2022-10-23T09:17:05.975Z,91.00
2022-10-23T09:20:17.816Z,91.00
2022-10-23T09:23:25.081Z,91.00
2022-10-23T09:26:28.702Z,91.00
2022-10-23T09:29:35.361Z,91.00
2022-10-23T09:32:39.742Z,91.00
2022-10-23T09:35:55.432Z,91.00
2022-10-23T09:39:02.055Z,91.00
2022-10-23T09:42:23.106Z,91.00
2022-10-23T09:45:30.045Z,91.00
2022-10-23T09:48:35.735Z,91.00
2022-10-23T09:51:42.085Z,91.00
2022-10-23T09:54:50.354Z,91.00
2022-10-23T09:57:55.233Z,91.00
2022-10-23T10:00:59.505Z,91.00
2022-10-23T10:04:19.625Z,91.00
2022-10-23T10:07:25.071Z,91.00
2022-10-23T10:10:38.694Z,91.00
2022-10-23T10:14:19.618Z,91.30
2022-10-23T10:17:32.821Z,91.10
2022-10-23T10:20:53.449Z,91.00
2022-10-23T10:24:03.781Z,91.00
2022-10-23T10:27:22.217Z,91.00
2022-10-23T10:30:26.921Z,91.00
2022-10-23T10:33:38.089Z,91.00
2022-10-23T10:36:52.295Z,91.00
2022-10-23T10:39:59.353Z,91.00
2022-10-23T10:43:29.638Z,90.90
2022-10-23T10:46:39.487Z,90.80
2022-10-23T10:49:51.796Z,90.80
2022-10-23T10:53:10.619Z,90.80
2022-10-23T10:56:17.531Z,90.80
2022-10-23T10:59:28.505Z,90.80
2022-10-23T11:02:40.793Z,90.70
2022-10-23T11:05:48.374Z,90.70
2022-10-23T11:08:57.870Z,90.70
2022-10-23T11:12:07.875Z,90.70
2022-10-23T11:15:16.210Z,90.70
2022-10-23T11:18:27.113Z,90.70
2022-10-23T11:21:39.734Z,90.60
2022-10-23T11:25:14.217Z,90.60
2022-10-23T11:28:26.802Z,90.60
2022-10-23T11:31:40.150Z,90.60
2022-10-23T11:35:06.087Z,90.60
2022-10-23T11:38:19.154Z,90.70
2022-10-23T11:41:26.924Z,90.60
2022-10-23T11:44:44.164Z,90.60
2022-10-23T11:47:58.488Z,90.50
2022-10-23T11:51:05.020Z,90.50
2022-10-23T11:54:26.646Z,90.50
2022-10-23T12:01:02.749Z,90.50
2022-10-23T12:04:22.762Z,90.40
2022-10-23T12:07:30.436Z,90.40
2022-10-23T12:10:36.630Z,90.40
2022-10-23T12:13:48.459Z,90.40
2022-10-23T12:16:52.085Z,90.30
2022-10-23T12:20:04.966Z,90.30
2022-10-23T12:23:34.819Z,90.30
2022-10-23T12:26:57.510Z,90.30
2022-10-23T12:30:17.538Z,90.30
2022-10-23T12:33:29.834Z,90.30
2022-10-23T12:36:48.825Z,90.30
2022-10-23T12:39:58.394Z,90.20
2022-10-23T12:43:02.870Z,90.20
2022-10-23T12:46:19.814Z,90.20
2022-10-23T12:49:25.290Z,90.20
2022-10-23T12:52:33.892Z,90.10
2022-10-23T12:55:50.286Z,90.20
2022-10-23T12:58:56.970Z,90.10
2022-10-23T13:02:00.885Z,90.10
2022-10-23T13:05:06.724Z,90.10
2022-10-23T13:08:13.708Z,90.10
2022-10-23T13:11:37.999Z,90.10
2022-10-23T13:14:57.267Z,90.00
2022-10-23T13:18:06.419Z,90.00
2022-10-23T13:21:18.805Z,90.00
2022-10-23T13:24:27.530Z,90.00
2022-10-23T13:27:35.115Z,90.00
2022-10-23T13:30:42.056Z,89.80
2022-10-23T13:33:47.076Z,90.00
2022-10-23T13:37:00.613Z,90.10
2022-10-23T13:40:22.672Z,89.60
2022-10-23T13:43:28.308Z,89.60
2022-10-23T13:46:32.098Z,89.50
2022-10-23T13:49:35.754Z,89.50
2022-10-23T13:52:39.526Z,89.40
2022-10-23T13:55:46.632Z,89.30
2022-10-23T13:58:51.132Z,89.30
2022-10-23T14:01:56.776Z,89.30
2022-10-23T14:05:00.458Z,89.20
2022-10-23T14:08:04.200Z,89.20
2022-10-23T14:11:11.764Z,89.20
2022-10-23T14:14:15.408Z,89.10
2022-10-23T14:17:19.145Z,89.10
2022-10-23T14:20:25.675Z,89.10
2022-10-23T14:23:30.871Z,89.10
2022-10-23T14:26:37.031Z,89.00
2022-10-23T14:29:41.977Z,89.00
2022-10-23T14:32:46.039Z,88.90
2022-10-23T14:35:51.748Z,88.90
2022-10-23T14:38:58.994Z,88.90
2022-10-23T14:42:05.202Z,88.90
2022-10-23T14:45:10.193Z,88.80
2022-10-23T14:48:13.928Z,88.80
2022-10-23T14:51:21.295Z,88.70
2022-10-23T14:54:25.024Z,88.70
2022-10-23T14:57:30.578Z,88.70
2022-10-23T15:00:34.859Z,88.60
2022-10-23T15:03:38.875Z,88.70
2022-10-23T15:06:42.254Z,88.70
2022-10-23T15:09:45.908Z,88.70
2022-10-23T15:12:51.578Z,88.60
2022-10-23T15:16:04.174Z,88.60
2022-10-23T15:19:09.136Z,88.50
2022-10-23T15:22:14.524Z,88.50
2022-10-23T15:25:18.434Z,88.50
2022-10-23T15:28:23.806Z,88.50
2022-10-23T15:31:47.746Z,88.50
2022-10-23T15:34:53.105Z,88.50
2022-10-23T15:37:56.701Z,88.50
2022-10-23T15:41:15.043Z,88.50
2022-10-23T15:44:22.041Z,88.50
2022-10-23T15:47:25.662Z,88.40
2022-10-23T15:50:29.394Z,88.40
2022-10-23T15:53:34.234Z,88.30
2022-10-23T15:56:38.105Z,88.30
2022-10-23T15:59:43.636Z,88.30
2022-10-23T16:02:47.507Z,88.30
2022-10-23T16:05:51.457Z,88.30
2022-10-23T16:08:55.148Z,88.30
2022-10-23T16:11:58.797Z,88.30
2022-10-23T16:15:04.527Z,88.20
2022-10-23T16:18:08.291Z,88.20
2022-10-23T16:21:19.390Z,88.10
2022-10-23T16:24:23.053Z,88.10
2022-10-23T16:27:26.794Z,88.10
2022-10-23T16:30:32.834Z,88.20
2022-10-23T16:33:36.494Z,88.10
2022-10-23T16:36:41.155Z,88.10
2022-10-23T16:39:56.367Z,88.10
2022-10-23T16:43:25.794Z,88.10
2022-10-23T16:46:42.636Z,88.10
2022-10-23T16:49:46.302Z,88.20
2022-10-23T16:52:53.288Z,88.20
2022-10-23T16:59:03.447Z,91.50
2022-10-23T17:02:10.647Z,91.80
2022-10-23T17:05:14.358Z,91.60
2022-10-23T17:08:18.056Z,91.50
2022-10-23T17:11:23.878Z,91.80
2022-10-23T17:14:30.255Z,91.60
2022-10-23T17:17:35.816Z,91.70
2022-10-23T17:20:39.427Z,91.70
2022-10-23T17:23:43.555Z,92.10
2022-10-23T17:26:47.753Z,91.50
2022-10-23T17:29:51.442Z,91.80
2022-10-23T17:32:59.499Z,91.60
2022-10-23T17:36:06.141Z,91.50
2022-10-23T17:39:11.635Z,91.60
2022-10-23T17:42:15.473Z,91.60
2022-10-23T17:45:19.162Z,91.40
2022-10-23T17:48:25.765Z,91.50
2022-10-23T17:51:31.066Z,91.80
2022-10-23T17:54:34.674Z,91.60
2022-10-23T17:57:38.293Z,91.60
2022-10-23T18:00:41.914Z,91.50
2022-10-23T18:03:47.877Z,91.50
2022-10-23T18:06:53.849Z,91.50
2022-10-23T18:09:57.478Z,91.50
2022-10-23T18:13:01.113Z,91.40
2022-10-23T18:16:05.899Z,91.50
2022-10-23T18:19:12.608Z,91.60
2022-10-23T18:22:16.242Z,91.60
2022-10-23T18:25:20.424Z,91.50
2022-10-23T18:28:24.156Z,91.80
2022-10-23T18:31:29.680Z,91.50
2022-10-23T18:34:35.218Z,91.40
2022-10-23T18:37:41.552Z,91.60
2022-10-23T18:40:45.659Z,91.70
2022-10-23T18:43:49.292Z,91.60
2022-10-23T18:46:53.656Z,91.50
2022-10-23T18:49:59.227Z,91.40
2022-10-23T18:53:02.842Z,91.40
2022-10-23T18:56:08.945Z,91.50
2022-10-23T18:59:15.203Z,91.60
2022-10-23T19:02:19.017Z,91.30
2022-10-23T19:05:24.465Z,91.30
2022-10-23T19:08:28.111Z,91.40
2022-10-23T19:11:31.739Z,91.40
2022-10-23T19:14:35.496Z,91.30
2022-10-23T19:17:39.304Z,91.40
2022-10-23T19:20:45.956Z,91.30
2022-10-23T19:23:50.896Z,91.50
2022-10-23T19:26:55.547Z,91.50
2022-10-23T19:30:02.789Z,91.60
2022-10-23T19:33:06.512Z,91.40
2022-10-23T19:36:14.257Z,91.60
2022-10-23T19:39:18.667Z,91.50
2022-10-23T19:42:22.065Z,91.60
2022-10-23T19:45:25.812Z,91.50
2022-10-23T19:48:29.575Z,91.50
2022-10-23T19:51:35.169Z,91.50
2022-10-23T19:54:40.480Z,91.60
2022-10-23T19:57:44.366Z,91.60
2022-10-23T20:00:47.944Z,91.60
2022-10-23T20:03:52.058Z,91.50
2022-10-23T20:06:57.618Z,91.60
2022-10-23T20:10:02.165Z,91.50
2022-10-23T20:13:18.700Z,91.70
2022-10-23T20:16:26.170Z,91.70
2022-10-23T20:19:29.956Z,91.70
2022-10-23T20:22:36.349Z,91.70
2022-10-23T20:25:39.984Z,91.80
2022-10-23T20:28:46.279Z,91.70
2022-10-23T20:31:50.000Z,91.70
2022-10-23T20:34:54.106Z,91.80
2022-10-23T20:37:59.640Z,91.80
2022-10-23T20:41:05.342Z,91.80
2022-10-23T20:44:12.185Z,91.90
2022-10-23T20:47:15.840Z,91.70
2022-10-23T20:50:20.281Z,92.00
2022-10-23T20:53:25.889Z,91.90
2022-10-23T20:56:31.655Z,91.80
2022-10-23T20:59:35.537Z,91.80
2022-10-23T21:02:39.287Z,92.00
2022-10-23T21:05:42.927Z,91.80
2022-10-23T21:08:48.724Z,92.00
2022-10-23T21:11:52.479Z,92.10
2022-10-23T21:14:56.081Z,91.80
2022-10-23T21:18:07.853Z,92.10
2022-10-23T21:21:23.062Z,91.90
2022-10-23T21:24:28.824Z,92.10
2022-10-23T21:27:32.606Z,91.90
2022-10-23T21:30:37.580Z,92.00
2022-10-23T21:33:42.519Z,92.00
2022-10-23T21:37:10.776Z,91.90
2022-10-23T21:40:13.017Z,92.00
2022-10-23T21:43:16.902Z,91.80
2022-10-23T21:46:20.566Z,92.00
2022-10-23T21:49:24.178Z,92.00
2022-10-23T21:52:27.866Z,91.90
2022-10-23T21:55:33.518Z,91.90
2022-10-23T21:58:37.838Z,92.10
2022-10-23T22:01:43.394Z,92.10
2022-10-23T22:04:47.105Z,92.10
2022-10-23T22:07:50.747Z,92.00
2022-10-23T22:10:56.474Z,92.10
2022-10-23T22:14:01.097Z,92.00
2022-10-23T22:17:04.806Z,92.10
2022-10-23T22:20:09.914Z,92.30
2022-10-23T22:23:13.549Z,92.10
2022-10-23T22:26:25.175Z,92.00
2022-10-23T22:29:30.509Z,92.00
2022-10-23T22:32:35.901Z,92.00
2022-10-23T22:35:39.583Z,92.00
2022-10-23T22:38:43.238Z,92.00
2022-10-23T22:41:48.874Z,92.10
2022-10-23T22:44:52.526Z,92.00
2022-10-23T22:47:56.170Z,92.20
2022-10-23T22:50:59.858Z,92.10
2022-10-23T22:54:03.490Z,91.90
2022-10-23T22:57:09.034Z,92.00
2022-10-23T23:00:13.886Z,92.00
2022-10-23T23:03:18.161Z,92.10
2022-10-23T23:06:22.819Z,92.10
2022-10-23T23:09:26.494Z,92.20
2022-10-23T23:12:32.142Z,92.50
2022-10-23T23:15:40.720Z,92.30
2022-10-23T23:18:44.316Z,92.40
2022-10-23T23:21:47.946Z,92.30
2022-10-23T23:24:51.602Z,92.40
2022-10-23T23:27:57.246Z,92.50
2022-10-23T23:31:05.333Z,92.50
2022-10-23T23:34:08.982Z,92.40
2022-10-23T23:37:12.628Z,92.60
2022-10-23T23:40:16.263Z,92.70
2022-10-23T23:43:22.406Z,92.60
2022-10-23T23:46:26.313Z,92.60
2022-10-23T23:49:29.751Z,91.80
2022-10-23T23:52:33.650Z,91.30
2022-10-23T23:55:37.595Z,91.30
2022-10-23T23:58:43.218Z,91.00
